createdAt,value
2023-01-17T00:02:22.477Z,72.12
2023-01-17T00:05:08.177Z,72.82
2023-01-17T00:07:53.938Z,72.49
2023-01-17T00:10:26.165Z,73.36
2023-01-17T00:12:55.815Z,73.38
2023-01-17T00:15:25.621Z,73.22
2023-01-17T00:17:53.629Z,72.60
2023-01-17T00:20:48.042Z,72.38
2023-01-17T00:23:41.098Z,72.12
2023-01-17T00:26:18.309Z,71.85
2023-01-17T00:28:46.901Z,71.68
2023-01-17T00:31:16.383Z,72.20
2023-01-17T00:33:43.506Z,72.06
2023-01-17T00:36:11.464Z,72.69
2023-01-17T00:38:39.629Z,72.74
2023-01-17T00:41:11.807Z,72.84
2023-01-17T00:43:58.102Z,73.12
2023-01-17T00:46:43.451Z,73.00
2023-01-17T00:49:29.971Z,73.85
2023-01-17T00:52:16.616Z,73.29
2023-01-17T00:55:02.035Z,73.90
2023-01-17T00:57:47.328Z,75.01
2023-01-17T01:00:33.220Z,75.47
2023-01-17T01:03:19.674Z,75.38
2023-01-17T01:06:05.130Z,75.82
2023-01-17T01:08:50.481Z,75.50
2023-01-17T01:11:39.324Z,76.24
2023-01-17T01:14:26.965Z,75.56
2023-01-17T01:17:12.627Z,75.90
2023-01-17T01:19:58.170Z,76.05
2023-01-17T01:22:43.485Z,76.07
2023-01-17T01:25:29.782Z,75.79
2023-01-17T01:28:29.310Z,75.59
2023-01-17T01:31:21.068Z,75.67
2023-01-17T01:33:48.497Z,75.00
2023-01-17T01:36:16.304Z,75.18
2023-01-17T01:38:44.028Z,74.99
2023-01-17T01:41:12.711Z,74.80
2023-01-17T01:43:49.494Z,75.30
2023-01-17T01:46:35.856Z,75.91
2023-01-17T01:49:25.639Z,75.80
2023-01-17T01:52:01.160Z,76.48
2023-01-17T01:54:37.525Z,76.08
2023-01-17T01:57:09.472Z,75.71
2023-01-17T01:59:44.859Z,75.49
2023-01-17T02:02:13.264Z,74.72
2023-01-17T02:04:41.156Z,75.31
2023-01-17T02:07:14.927Z,75.40
2023-01-17T02:09:42.906Z,76.13
2023-01-17T02:12:11.331Z,76.30
2023-01-17T02:14:38.073Z,76.46
2023-01-17T02:17:21.103Z,76.57
2023-01-17T02:20:14.871Z,76.17
2023-01-17T02:23:20.372Z,77.30
2023-01-17T02:26:10.607Z,79.35
2023-01-17T02:29:15.572Z,87.92
2023-01-17T02:31:53.708Z,89.45
2023-01-17T02:34:36.728Z,90.78
2023-01-17T02:37:26.624Z,89.54
2023-01-17T02:40:05.314Z,89.04
2023-01-17T02:42:40.603Z,90.20
2023-01-17T02:45:09.071Z,89.48
2023-01-17T02:47:36.829Z,89.60
2023-01-17T02:50:15.381Z,89.66
2023-01-17T02:53:20.497Z,90.38
2023-01-17T02:56:08.154Z,90.16
2023-01-17T02:58:44.444Z,90.54
2023-01-17T03:01:37.204Z,91.51
2023-01-17T03:04:13.023Z,93.10
2023-01-17T03:07:03.622Z,92.31
2023-01-17T03:09:32.948Z,91.76
2023-01-17T03:12:00.366Z,91.32
2023-01-17T03:14:31.391Z,91.17
2023-01-17T03:16:58.378Z,90.15
2023-01-17T03:19:25.216Z,88.89
2023-01-17T03:21:52.145Z,88.85
2023-01-17T03:24:19.133Z,87.50
2023-01-17T03:26:48.092Z,87.27
2023-01-17T03:29:16.877Z,86.89
2023-01-17T03:31:44.538Z,86.08
2023-01-17T03:34:11.503Z,85.09
2023-01-17T03:36:39.562Z,84.91
2023-01-17T03:39:06.549Z,83.90
2023-01-17T03:41:36.364Z,82.19
2023-01-17T03:44:03.281Z,82.01
2023-01-17T03:46:31.166Z,82.85
2023-01-17T03:48:58.036Z,83.85
2023-01-17T03:51:25.337Z,84.80
2023-01-17T03:53:54.270Z,84.87
2023-01-17T03:56:21.410Z,84.38
2023-01-17T03:58:48.309Z,83.72
2023-01-17T04:01:17.189Z,83.08
2023-01-17T04:03:44.182Z,81.62
2023-01-17T04:06:12.147Z,82.58
2023-01-17T04:08:39.091Z,83.68
2023-01-17T04:11:05.874Z,84.52
2023-01-17T04:13:35.452Z,84.97
2023-01-17T04:16:02.318Z,85.11
2023-01-17T04:18:31.041Z,84.66
2023-01-17T04:20:58.015Z,84.25
2023-01-17T04:23:24.970Z,84.33
2023-01-17T04:25:51.956Z,85.09
2023-01-17T04:28:18.733Z,83.71
2023-01-17T04:30:45.735Z,83.69
2023-01-17T04:33:13.462Z,84.42
2023-01-17T04:35:41.286Z,84.58
2023-01-17T04:38:08.171Z,83.85
2023-01-17T04:40:35.352Z,83.50
2023-01-17T04:43:03.295Z,83.57
2023-01-17T04:45:30.131Z,82.43
2023-01-17T04:48:02.159Z,81.86
2023-01-17T04:50:29.016Z,82.59
2023-01-17T04:52:55.815Z,83.24
2023-01-17T04:55:22.699Z,83.31
2023-01-17T04:57:51.913Z,82.38
2023-01-17T05:00:19.516Z,82.82
2023-01-17T05:02:47.282Z,83.18
2023-01-17T05:05:14.575Z,82.64
2023-01-17T05:07:41.447Z,81.52
2023-01-17T05:10:09.194Z,81.48
2023-01-17T05:12:35.999Z,81.10
2023-01-17T05:15:03.194Z,82.44
2023-01-17T05:17:30.301Z,82.36
2023-01-17T05:19:57.268Z,82.96
2023-01-17T05:22:24.096Z,83.11
2023-01-17T05:24:52.031Z,83.65
2023-01-17T05:27:19.972Z,83.56
2023-01-17T05:29:46.967Z,84.26
2023-01-17T05:32:14.015Z,83.87
2023-01-17T05:34:44.129Z,83.19
2023-01-17T05:37:11.071Z,82.92
2023-01-17T05:39:39.867Z,82.63
2023-01-17T05:42:06.805Z,82.28
2023-01-17T05:44:35.586Z,82.64
2023-01-17T05:47:03.249Z,82.20
2023-01-17T05:49:30.149Z,81.19
2023-01-17T05:51:58.137Z,81.70
2023-01-17T05:54:27.786Z,81.79
2023-01-17T05:56:57.452Z,81.51
2023-01-17T05:59:36.496Z,81.32
2023-01-17T06:02:05.459Z,81.57
2023-01-17T06:04:33.669Z,81.37
2023-01-17T06:07:01.930Z,81.86
2023-01-17T06:09:28.833Z,82.52
2023-01-17T06:11:57.524Z,82.82
2023-01-17T06:14:25.344Z,82.42
2023-01-17T06:16:53.077Z,82.70
2023-01-17T06:19:20.804Z,83.11
2023-01-17T06:21:48.519Z,82.88
2023-01-17T06:24:15.389Z,82.62
2023-01-17T06:26:46.199Z,82.59
2023-01-17T06:29:16.605Z,82.26
2023-01-17T06:31:44.239Z,81.88
2023-01-17T06:34:11.527Z,81.59
2023-01-17T06:36:39.420Z,81.10
2023-01-17T06:39:06.284Z,81.19
2023-01-17T06:41:33.525Z,80.83
2023-01-17T06:44:00.429Z,80.94
2023-01-17T06:46:28.439Z,81.40
2023-01-17T06:48:55.424Z,81.21
2023-01-17T06:51:23.061Z,80.47
2023-01-17T06:53:50.010Z,81.31
2023-01-17T06:56:17.748Z,81.40
2023-01-17T06:58:44.664Z,81.97
2023-01-17T07:01:13.277Z,82.35
2023-01-17T07:03:40.330Z,82.76
2023-01-17T07:06:09.647Z,82.94
2023-01-17T07:08:37.646Z,82.60
2023-01-17T07:11:08.065Z,82.72
2023-01-17T07:13:36.588Z,82.44
2023-01-17T07:16:06.005Z,81.97
2023-01-17T07:18:34.427Z,81.80
2023-01-17T07:21:01.556Z,82.01
2023-01-17T07:23:28.468Z,81.75
2023-01-17T07:25:59.954Z,81.67
2023-01-17T07:28:28.340Z,81.59
2023-01-17T07:30:56.564Z,81.80
2023-01-17T07:33:23.570Z,82.07
2023-01-17T07:35:50.288Z,81.72
2023-01-17T07:38:19.690Z,82.04
2023-01-17T07:40:46.807Z,82.16
2023-01-17T07:43:14.611Z,82.04
2023-01-17T07:45:46.534Z,81.50
2023-01-17T07:48:13.575Z,81.63
2023-01-17T07:50:41.605Z,81.74
2023-01-17T07:53:10.028Z,81.97
2023-01-17T07:55:37.011Z,81.48
2023-01-17T07:58:04.704Z,81.30
2023-01-17T08:00:32.388Z,81.06
2023-01-17T08:03:01.575Z,80.71
2023-01-17T08:05:30.965Z,80.43
2023-01-17T08:08:01.344Z,80.39
2023-01-17T08:10:28.378Z,79.84
2023-01-17T08:12:56.096Z,79.47
2023-01-17T08:15:23.925Z,79.41
2023-01-17T08:17:54.405Z,79.47
2023-01-17T08:20:21.456Z,78.53
2023-01-17T08:22:48.163Z,78.39
2023-01-17T08:25:15.960Z,78.00
2023-01-17T08:27:42.660Z,77.34
2023-01-17T08:30:10.153Z,77.12
2023-01-17T08:32:41.075Z,76.76
2023-01-17T08:35:09.364Z,76.10
2023-01-17T08:37:38.053Z,75.91
2023-01-17T08:40:06.092Z,75.42
2023-01-17T08:42:37.498Z,73.92
2023-01-17T08:45:05.917Z,74.39
2023-01-17T08:47:34.506Z,74.21
2023-01-17T08:50:02.385Z,74.07
2023-01-17T08:52:30.291Z,73.35
2023-01-17T08:54:57.349Z,72.70
2023-01-17T08:57:24.324Z,73.53
2023-01-17T08:59:55.403Z,73.43
2023-01-17T09:02:24.236Z,73.12
2023-01-17T09:04:51.736Z,71.35
2023-01-17T09:07:20.841Z,72.26
2023-01-17T09:09:47.734Z,71.17
2023-01-17T09:12:14.699Z,71.23
2023-01-17T09:14:42.394Z,71.47
2023-01-17T09:17:10.115Z,71.86
2023-01-17T09:19:39.835Z,71.50
2023-01-17T09:22:07.519Z,71.27
2023-01-17T09:24:35.084Z,70.43
2023-01-17T09:27:04.125Z,69.85
2023-01-17T09:29:31.883Z,69.90
2023-01-17T09:32:01.165Z,69.33
2023-01-17T09:34:28.214Z,70.08
2023-01-17T09:36:57.169Z,70.20
2023-01-17T09:39:25.099Z,70.19
2023-01-17T09:42:04.870Z,70.08
2023-01-17T09:44:43.143Z,70.16
2023-01-17T09:47:20.750Z,70.39
2023-01-17T09:49:48.032Z,69.79
2023-01-17T09:52:21.157Z,69.74
2023-01-17T09:54:50.346Z,69.12
2023-01-17T09:57:46.920Z,68.71
2023-01-17T10:00:34.662Z,69.26
2023-01-17T10:03:02.273Z,69.21
2023-01-17T10:05:48.781Z,69.25
2023-01-17T10:08:21.594Z,69.26
2023-01-17T10:11:07.565Z,70.34
2023-01-17T10:13:47.442Z,68.30
2023-01-17T10:16:40.706Z,67.53
2023-01-17T10:19:29.681Z,67.09
2023-01-17T10:22:07.649Z,66.22
2023-01-17T10:24:52.027Z,65.31
2023-01-17T10:27:32.473Z,65.02
2023-01-17T10:30:03.598Z,64.75
2023-01-17T10:32:35.264Z,64.77
2023-01-17T10:35:19.100Z,65.11
2023-01-17T10:37:48.052Z,64.73
2023-01-17T10:40:27.454Z,63.65
2023-01-17T10:43:05.313Z,62.54
2023-01-17T10:45:41.369Z,61.17
2023-01-17T10:48:30.300Z,60.83
2023-01-17T10:51:12.892Z,58.78
2023-01-17T10:53:57.712Z,60.05
2023-01-17T10:56:28.955Z,58.00
2023-01-17T10:59:17.707Z,58.20
2023-01-17T11:01:45.975Z,58.04
2023-01-17T11:04:33.275Z,59.12
2023-01-17T11:07:16.932Z,60.49
2023-01-17T11:09:50.046Z,60.45
2023-01-17T11:12:35.489Z,61.81
2023-01-17T11:15:10.159Z,61.36
2023-01-17T11:17:44.368Z,61.24
2023-01-17T11:20:22.921Z,60.68
2023-01-17T11:23:03.032Z,62.01
2023-01-17T11:25:35.129Z,62.39
2023-01-17T11:28:06.281Z,62.63
2023-01-17T11:30:34.381Z,62.02
2023-01-17T11:33:06.229Z,60.01
2023-01-17T11:35:36.879Z,58.86
2023-01-17T11:38:12.069Z,58.85
2023-01-17T11:40:44.540Z,58.33
2023-01-17T11:43:11.463Z,58.88
2023-01-17T11:45:39.807Z,58.05
2023-01-17T11:48:15.282Z,56.54
2023-01-17T11:50:53.784Z,54.48
2023-01-17T11:53:32.353Z,56.27
2023-01-17T11:56:09.937Z,53.56
2023-01-17T11:58:41.241Z,53.27
2023-01-17T12:01:36.767Z,52.99
2023-01-17T12:04:09.764Z,54.43
2023-01-17T12:06:58.091Z,55.51
2023-01-17T12:09:35.888Z,54.54
2023-01-17T12:12:35.380Z,55.15
2023-01-17T12:15:32.846Z,55.08
2023-01-17T12:18:12.143Z,54.95
2023-01-17T12:20:56.187Z,53.64
2023-01-17T12:23:44.115Z,52.35
2023-01-17T12:26:38.435Z,52.98
2023-01-17T12:29:44.312Z,52.79
2023-01-17T12:33:10.754Z,53.15
2023-01-17T12:35:40.367Z,54.70
2023-01-17T12:38:27.438Z,54.35
2023-01-17T12:41:14.375Z,54.33
2023-01-17T12:43:44.512Z,54.69
2023-01-17T12:46:21.248Z,54.28
2023-01-17T12:48:57.044Z,54.76
2023-01-17T12:51:36.949Z,55.54
2023-01-17T12:54:26.363Z,55.34
2023-01-17T12:57:09.897Z,54.89
2023-01-17T12:59:55.319Z,54.37
2023-01-17T13:02:33.437Z,55.07
2023-01-17T13:05:15.418Z,54.72
2023-01-17T13:07:48.948Z,56.09
2023-01-17T13:10:25.723Z,56.64
2023-01-17T13:12:58.031Z,56.56
2023-01-17T13:15:30.685Z,56.99
2023-01-17T13:18:13.323Z,57.71
2023-01-17T13:21:04.927Z,59.04
2023-01-17T13:23:55.930Z,59.92
2023-01-17T13:26:28.870Z,60.25
2023-01-17T13:29:31.278Z,60.75
2023-01-17T13:32:21.117Z,60.60
2023-01-17T13:35:12.482Z,60.86
2023-01-17T13:38:04.864Z,60.78
2023-01-17T13:40:41.590Z,61.41
2023-01-17T13:43:22.472Z,61.72
2023-01-17T13:45:56.743Z,62.37
2023-01-17T13:48:27.230Z,62.04
2023-01-17T13:50:59.274Z,61.97
2023-01-17T13:53:28.867Z,61.83
2023-01-17T13:56:14.899Z,62.62
2023-01-17T13:58:51.739Z,62.87
2023-01-17T14:01:23.565Z,64.30
2023-01-17T14:03:51.825Z,64.93
2023-01-17T14:06:49.485Z,65.59
2023-01-17T14:09:40.540Z,66.77
2023-01-17T14:12:27.290Z,67.57
2023-01-17T14:14:58.958Z,67.88
2023-01-17T14:17:37.528Z,68.86
2023-01-17T14:20:05.220Z,69.89
2023-01-17T14:22:38.865Z,70.96
2023-01-17T14:25:10.049Z,71.58
2023-01-17T14:27:43.220Z,72.81
2023-01-17T14:30:18.299Z,72.61
2023-01-17T14:33:06.023Z,73.34
2023-01-17T14:35:36.926Z,73.26
2023-01-17T14:38:24.736Z,73.47
2023-01-17T14:41:27.937Z,73.62
2023-01-17T14:43:59.696Z,74.12
2023-01-17T14:46:32.580Z,74.54
2023-01-17T14:49:06.302Z,74.25
2023-01-17T14:51:38.582Z,74.11
2023-01-17T14:54:21.232Z,74.26
2023-01-17T14:56:49.975Z,74.62
2023-01-17T14:59:22.134Z,74.93
2023-01-17T15:02:07.168Z,74.80
2023-01-17T15:04:39.621Z,74.76
2023-01-17T15:07:15.665Z,73.84
2023-01-17T15:09:45.022Z,74.17
2023-01-17T15:12:16.520Z,73.92
2023-01-17T15:14:46.337Z,74.63
2023-01-17T15:17:21.429Z,74.93
2023-01-17T15:20:01.753Z,75.58
2023-01-17T15:22:30.521Z,76.05
2023-01-17T15:24:59.184Z,76.32
2023-01-17T15:27:26.983Z,76.84
2023-01-17T15:29:57.661Z,76.60
2023-01-17T15:32:31.908Z,76.58
2023-01-17T15:35:00.334Z,76.94
2023-01-17T15:37:36.699Z,77.73
2023-01-17T15:40:21.897Z,79.09
2023-01-17T15:42:56.692Z,79.13
2023-01-17T15:45:33.291Z,78.50
2023-01-17T15:48:45.170Z,78.16
2023-01-17T15:51:13.397Z,78.06
2023-01-17T15:53:45.867Z,79.06
2023-01-17T15:56:40.149Z,78.83
2023-01-17T15:59:31.302Z,78.54
2023-01-17T16:01:59.923Z,80.34
2023-01-17T16:04:29.449Z,80.51
2023-01-17T16:07:10.387Z,81.35
2023-01-17T16:09:45.795Z,81.23
2023-01-17T16:12:15.152Z,81.11
2023-01-17T16:14:59.580Z,81.52
2023-01-17T16:17:32.785Z,81.00
2023-01-17T16:19:59.843Z,81.32
2023-01-17T16:22:28.556Z,81.25
2023-01-17T16:24:56.434Z,80.88
2023-01-17T16:27:24.342Z,80.95
2023-01-17T16:29:52.389Z,80.98
2023-01-17T16:32:24.083Z,81.28
2023-01-17T16:34:51.932Z,80.59
2023-01-17T16:37:21.985Z,80.51
2023-01-17T16:39:50.603Z,80.57
2023-01-17T16:42:23.043Z,80.15
2023-01-17T16:44:50.822Z,80.41
2023-01-17T16:47:17.810Z,81.40
2023-01-17T16:49:46.925Z,81.64
2023-01-17T16:52:13.756Z,82.51
2023-01-17T16:54:41.525Z,83.07
2023-01-17T16:57:09.759Z,82.65
2023-01-17T16:59:49.816Z,82.70
2023-01-17T17:02:20.599Z,82.30
2023-01-17T17:04:47.497Z,82.24
2023-01-17T17:07:17.920Z,82.02
2023-01-17T17:09:45.739Z,81.92
2023-01-17T17:12:14.639Z,81.24
2023-01-17T17:14:41.705Z,81.62
2023-01-17T17:17:09.630Z,81.40
2023-01-17T17:19:37.282Z,81.49
2023-01-17T17:22:06.610Z,81.58
2023-01-17T17:24:33.990Z,81.19
2023-01-17T17:27:02.760Z,81.05
2023-01-17T17:29:29.628Z,80.97
2023-01-17T17:32:02.463Z,80.77
2023-01-17T17:34:30.957Z,80.82
2023-01-17T17:36:58.093Z,81.03
2023-01-17T17:39:25.122Z,80.50
2023-01-17T17:41:54.675Z,80.19
2023-01-17T17:44:21.625Z,79.91
2023-01-17T17:46:51.316Z,79.83
2023-01-17T17:49:18.347Z,79.47
2023-01-17T17:51:47.977Z,79.27
2023-01-17T17:54:17.193Z,79.99
2023-01-17T17:56:49.327Z,79.72
2023-01-17T17:59:18.454Z,79.67
2023-01-17T18:01:47.902Z,77.31
2023-01-17T18:04:17.531Z,77.39
2023-01-17T18:06:46.898Z,78.16
2023-01-17T18:09:15.119Z,77.76
2023-01-17T18:11:43.870Z,77.79
2023-01-17T18:14:16.128Z,77.73
2023-01-17T18:16:45.801Z,77.90
2023-01-17T18:19:25.178Z,77.42
2023-01-17T18:21:54.021Z,77.37
2023-01-17T18:24:25.686Z,77.81
2023-01-17T18:26:59.089Z,77.99
2023-01-17T18:29:27.284Z,76.92
2023-01-17T18:31:56.907Z,77.12
2023-01-17T18:34:29.457Z,77.25
2023-01-17T18:37:00.523Z,76.66
2023-01-17T18:39:29.356Z,76.17
2023-01-17T18:41:58.176Z,75.60
2023-01-17T18:44:27.491Z,75.56
2023-01-17T18:47:04.606Z,75.86
2023-01-17T18:49:35.451Z,75.38
2023-01-17T18:52:03.324Z,75.78
2023-01-17T18:54:32.072Z,75.71
2023-01-17T18:56:59.857Z,76.02
2023-01-17T18:59:27.673Z,75.38
2023-01-17T19:01:56.135Z,75.50
2023-01-17T19:04:23.870Z,75.22
2023-01-17T19:06:53.718Z,74.75
2023-01-17T19:09:20.626Z,74.71
2023-01-17T19:11:48.652Z,74.82
2023-01-17T19:14:16.683Z,74.55
2023-01-17T19:16:45.250Z,74.53
2023-01-17T19:19:15.495Z,74.44
2023-01-17T19:21:43.985Z,74.56
2023-01-17T19:24:15.395Z,74.51
2023-01-17T19:26:44.044Z,74.00
2023-01-17T19:29:12.361Z,73.65
2023-01-17T19:31:43.766Z,73.37
2023-01-17T19:34:18.947Z,73.05
2023-01-17T19:36:47.384Z,73.06
2023-01-17T19:39:15.162Z,73.88
2023-01-17T19:41:45.236Z,73.94
2023-01-17T19:44:14.791Z,72.76
2023-01-17T19:46:46.280Z,72.20
2023-01-17T19:49:16.350Z,72.69
2023-01-17T19:51:44.058Z,72.51
2023-01-17T19:54:12.130Z,72.84
2023-01-17T19:56:39.335Z,72.66
2023-01-17T19:59:07.291Z,72.91
2023-01-17T20:01:35.122Z,72.84
2023-01-17T20:04:03.886Z,72.76
2023-01-17T20:06:36.989Z,72.42
2023-01-17T20:09:06.564Z,72.59
2023-01-17T20:11:34.381Z,72.33
2023-01-17T20:14:02.552Z,72.42
2023-01-17T20:16:32.019Z,72.61
2023-01-17T20:19:02.923Z,73.09
2023-01-17T20:21:32.269Z,72.61
2023-01-17T20:24:03.370Z,72.83
2023-01-17T20:26:36.733Z,72.99
2023-01-17T20:29:12.230Z,73.29
2023-01-17T20:31:40.797Z,73.09
2023-01-17T20:34:12.083Z,73.01
2023-01-17T20:36:42.456Z,73.23
2023-01-17T20:39:13.159Z,73.51
2023-01-17T20:41:42.139Z,73.14
2023-01-17T20:44:13.053Z,72.99
2023-01-17T20:46:41.777Z,73.65
2023-01-17T20:49:15.861Z,74.84
2023-01-17T20:51:44.828Z,75.66
2023-01-17T20:54:15.135Z,77.75
2023-01-17T20:56:42.901Z,77.50
2023-01-17T20:59:14.978Z,77.91
2023-01-17T21:01:44.184Z,78.76
2023-01-17T21:04:13.114Z,79.93
2023-01-17T21:06:41.866Z,79.61
2023-01-17T21:09:13.215Z,79.72
2023-01-17T21:11:41.178Z,81.37
2023-01-17T21:14:11.344Z,81.68
2023-01-17T21:16:39.348Z,81.44
2023-01-17T21:19:12.248Z,80.99
2023-01-17T21:21:39.285Z,80.68
2023-01-17T21:24:07.069Z,79.76
2023-01-17T21:26:33.911Z,79.97
2023-01-17T21:29:03.944Z,79.21
2023-01-17T21:31:34.869Z,78.99
2023-01-17T21:34:07.186Z,78.97
2023-01-17T21:36:37.483Z,78.60
2023-01-17T21:39:07.818Z,78.05
2023-01-17T21:41:38.295Z,78.24
2023-01-17T21:44:12.275Z,78.05
2023-01-17T21:46:40.130Z,78.36
2023-01-17T21:49:10.767Z,77.99
2023-01-17T21:52:05.184Z,78.09
2023-01-17T21:54:50.644Z,77.89
2023-01-17T21:57:39.458Z,77.67
2023-01-17T22:00:10.417Z,77.37
2023-01-17T22:02:37.212Z,77.36
2023-01-17T22:05:04.017Z,77.63
2023-01-17T22:07:30.772Z,77.42
2023-01-17T22:09:57.623Z,76.69
2023-01-17T22:12:24.537Z,77.08
2023-01-17T22:14:51.377Z,77.00
2023-01-17T22:17:18.174Z,77.23
2023-01-17T22:19:46.114Z,77.24
2023-01-17T22:22:13.165Z,77.59
2023-01-17T22:24:40.686Z,77.88
2023-01-17T22:27:10.692Z,77.85
2023-01-17T22:29:37.904Z,77.51
2023-01-17T22:32:05.393Z,76.60
2023-01-17T22:34:32.174Z,76.32
2023-01-17T22:36:59.291Z,76.07
2023-01-17T22:39:26.112Z,76.12
2023-01-17T22:41:52.891Z,75.09
2023-01-17T22:44:19.990Z,74.92
2023-01-17T22:46:48.213Z,74.52
2023-01-17T22:49:17.136Z,74.30
2023-01-17T22:51:44.209Z,74.29
2023-01-17T22:54:11.601Z,74.18
2023-01-17T22:56:38.467Z,74.49
2023-01-17T22:59:11.417Z,74.05
2023-01-17T23:01:40.872Z,73.71
2023-01-17T23:04:13.303Z,73.84
2023-01-17T23:06:41.422Z,74.50
2023-01-17T23:09:11.695Z,74.16
2023-01-17T23:11:44.010Z,74.02
2023-01-17T23:14:20.118Z,73.55
2023-01-17T23:17:12.669Z,73.06
2023-01-17T23:19:41.997Z,73.41
2023-01-17T23:22:30.743Z,73.19
2023-01-17T23:25:01.401Z,73.46
2023-01-17T23:27:52.438Z,74.04
2023-01-17T23:30:22.214Z,74.49
2023-01-17T23:32:51.768Z,74.50
2023-01-17T23:35:21.066Z,75.44
2023-01-17T23:38:06.432Z,75.61
2023-01-17T23:40:35.221Z,75.29
2023-01-17T23:43:20.896Z,75.54
2023-01-17T23:45:47.786Z,75.22
2023-01-17T23:48:14.658Z,76.04
2023-01-17T23:50:44.249Z,76.04
2023-01-17T23:53:24.695Z,75.99
2023-01-17T23:55:53.525Z,75.89
2023-01-17T23:58:22.598Z,76.20
